Time,TemperatureF,DewpointF,PressureIn,WindDirection,WindDirectionDegrees,WindSpeedMPH,WindSpeedGustMPH,Humidity,HourlyPrecipIn,Conditions,Clouds,dailyrainin,SoftwareType,DateUTC
2013-01-01 00:00:00,38.3,36.5,30.09,SSW,196,0.0,0.0,93,0.00,,,0.00,Wunderground v.1.15,2013-01-01 05:00:00,
2013-01-01 00:05:00,38.2,36.4,30.10,SSW,196,0.0,0.0,93,0.00,,,0.00,Wunderground v.1.15,2013-01-01 05:05:00,
2013-01-01 00:10:00,38.3,36.5,30.10,SSW,196,0.0,0.0,93,0.00,,,0.00,Wunderground v.1.15,2013-01-01 05:10:00,
2013-01-01 00:20:00,38.3,36.5,30.10,SSW,196,0.0,0.0,93,0.00,,,0.00,Wunderground v.1.15,2013-01-01 05:20:00,
2013-01-01 00:29:00,38.3,36.5,30.09,SSW,196,0.0,0.0,93,0.00,,,0.00,Wunderground v.1.15,2013-01-01 05:29:00,
2013-01-01 00:34:00,38.4,36.6,30.09,SSW,196,0.0,0.0,93,0.00,,,0.00,Wunderground v.1.15,2013-01-01 05:34:00,
2013-01-01 00:40:00,38.4,36.6,30.08,SSW,196,0.0,0.0,93,0.00,,,0.00,Wunderground v.1.15,2013-01-01 05:40:00,
2013-01-01 00:45:00,38.3,36.5,30.08,SSW,196,0.0,0.0,93,0.00,,,0.00,Wunderground v.1.15,2013-01-01 05:45:00,
2013-01-01 00:50:00,38.4,36.8,30.08,SSW,196,0.0,0.0,94,0.00,,,0.00,Wunderground v.1.15,2013-01-01 05:50:00,
2013-01-01 00:55:00,38.4,36.8,30.09,SSW,196,0.0,0.0,94,0.00,,,0.00,Wunderground v.1.15,2013-01-01 05:55:00,
2013-01-01 01:00:00,38.4,36.8,30.07,SSW,196,0.0,0.0,94,0.00,,,0.00,Wunderground v.1.15,2013-01-01 06:00:00,
2013-01-01 01:10:00,38.5,36.9,30.07,WNW,302,0.0,0.0,94,0.00,,,0.00,Wunderground v.1.15,2013-01-01 06:10:00,
2013-01-01 01:19:00,38.5,36.9,30.07,WNW,302,0.0,0.0,94,0.00,,,0.00,Wunderground v.1.15,2013-01-01 06:19:00,
2013-01-01 01:25:00,38.6,37.0,30.06,WNW,302,0.0,0.0,94,0.00,,,0.00,Wunderground v.1.15,2013-01-01 06:25:00,
2013-01-01 01:35:00,38.6,37.0,30.07,WNW,302,0.0,0.0,94,0.00,,,0.00,Wunderground v.1.15,2013-01-01 06:35:00,
2013-01-01 01:40:00,38.6,37.0,30.07,WNW,302,0.0,0.0,94,0.00,,,0.00,Wunderground v.1.15,2013-01-01 06:40:00,
2013-01-01 01:45:00,38.7,37.1,30.06,WNW,302,0.0,0.0,94,0.00,,,0.00,Wunderground v.1.15,2013-01-01 06:45:00,
2013-01-01 01:50:00,38.7,37.4,30.06,WNW,302,0.0,0.0,95,0.00,,,0.00,Wunderground v.1.15,2013-01-01 06:50:00,
2013-01-01 01:55:00,38.7,37.4,30.06,WNW,302,0.0,0.0,95,0.00,,,0.00,Wunderground v.1.15,2013-01-01 06:55:00,
2013-01-01 02:04:00,38.7,37.4,30.06,WNW,302,0.0,0.0,95,0.00,,,0.00,Wunderground v.1.15,2013-01-01 07:04:00,
2013-01-01 02:09:00,38.7,37.4,30.07,WNW,302,0.0,0.0,95,0.00,,,0.00,Wunderground v.1.15,2013-01-01 07:09:00,
2013-01-01 02:15:00,38.7,37.4,30.07,WNW,302,0.0,0.0,95,0.00,,,0.00,Wunderground v.1.15,2013-01-01 07:15:00,
2013-01-01 02:20:00,38.7,37.4,30.07,WNW,302,0.0,0.0,95,0.00,,,0.00,Wunderground v.1.15,2013-01-01 07:20:00,
2013-01-01 02:25:00,38.7,37.4,30.07,WNW,302,0.0,0.0,95,0.00,,,0.00,Wunderground v.1.15,2013-01-01 07:25:00,
2013-01-01 02:30:00,38.7,37.4,30.07,WNW,302,0.0,0.0,95,0.00,,,0.00,Wunderground v.1.15,2013-01-01 07:30:00,
2013-01-01 02:35:00,38.8,37.5,30.07,WNW,302,0.0,0.0,95,0.00,,,0.01,Wunderground v.1.15,2013-01-01 07:35:00,
2013-01-01 02:40:00,38.8,37.5,30.07,WNW,302,0.0,0.0,95,0.00,,,0.01,Wunderground v.1.15,2013-01-01 07:40:00,
2013-01-01 02:45:00,38.8,37.5,30.06,WNW,302,0.0,0.0,95,0.00,,,0.01,Wunderground v.1.15,2013-01-01 07:45:00,
2013-01-01 02:54:00,38.8,37.5,30.05,WNW,302,0.0,0.0,95,0.00,,,0.01,Wunderground v.1.15,2013-01-01 07:54:00,
2013-01-01 03:00:00,38.8,37.5,30.05,WNW,302,0.0,0.0,95,0.00,,,0.01,Wunderground v.1.15,2013-01-01 08:00:00,
2013-01-01 03:10:00,38.9,37.6,30.06,WNW,302,0.0,0.0,95,0.00,,,0.01,Wunderground v.1.15,2013-01-01 08:10:00,
2013-01-01 03:15:00,38.9,37.6,30.05,WNW,302,0.0,0.0,95,0.00,,,0.01,Wunderground v.1.15,2013-01-01 08:15:00,
2013-01-01 03:20:00,38.9,37.6,30.05,WNW,302,0.0,0.0,95,0.00,,,0.01,Wunderground v.1.15,2013-01-01 08:20:00,
2013-01-01 03:25:00,38.9,37.6,30.05,WNW,302,0.0,0.0,95,0.00,,,0.01,Wunderground v.1.15,2013-01-01 08:25:00,
2013-01-01 03:34:00,38.9,37.6,30.06,WNW,302,0.0,0.0,95,0.00,,,0.01,Wunderground v.1.15,2013-01-01 08:34:00,
2013-01-01 03:39:00,38.9,37.6,30.06,WNW,302,0.0,0.0,95,0.00,,,0.01,Wunderground v.1.15,2013-01-01 08:39:00,
2013-01-01 03:44:00,38.9,37.6,30.06,WNW,302,0.0,0.0,95,0.00,,,0.01,Wunderground v.1.15,2013-01-01 08:44:00,
2013-01-01 03:50:00,38.9,37.6,30.06,WNW,302,0.0,0.0,95,0.00,,,0.01,Wunderground v.1.15,2013-01-01 08:50:00,
2013-01-01 03:55:00,39.0,37.7,30.06,WNW,302,0.0,0.0,95,0.00,,,0.01,Wunderground v.1.15,2013-01-01 08:55:00,
2013-01-01 04:00:00,39.1,38.1,30.07,WNW,302,0.0,0.0,96,0.00,,,0.01,Wunderground v.1.15,2013-01-01 09:00:00,
2013-01-01 04:09:00,39.2,38.2,30.08,NE,54,0.0,0.0,96,0.00,,,0.02,Wunderground v.1.15,2013-01-01 09:09:00,
2013-01-01 04:14:00,39.2,38.2,30.08,NE,54,1.0,1.0,96,0.00,,,0.02,Wunderground v.1.15,2013-01-01 09:14:00,
2013-01-01 04:19:00,39.3,38.3,30.08,NE,37,0.0,1.0,96,0.00,,,0.02,Wunderground v.1.15,2013-01-01 09:19:00,
2013-01-01 04:24:00,39.3,38.3,30.07,NE,37,0.0,1.0,96,0.00,,,0.02,Wunderground v.1.15,2013-01-01 09:24:00,
2013-01-01 04:29:00,39.3,38.3,30.07,NE,38,0.0,0.0,96,0.00,,,0.02,Wunderground v.1.15,2013-01-01 09:29:00,
2013-01-01 04:35:00,39.3,38.0,30.07,East,82,0.0,0.0,95,0.00,,,0.03,Wunderground v.1.15,2013-01-01 09:35:00,
2013-01-01 04:40:00,39.3,38.0,30.07,East,82,0.0,0.0,95,0.09,,,0.04,Wunderground v.1.15,2013-01-01 09:40:00,
2013-01-01 04:45:00,39.3,38.0,30.07,East,82,0.0,0.0,95,0.07,,,0.04,Wunderground v.1.15,2013-01-01 09:45:00,
2013-01-01 04:50:00,39.2,37.9,30.07,East,82,0.0,0.0,95,0.05,,,0.05,Wunderground v.1.15,2013-01-01 09:50:00,
2013-01-01 04:55:00,39.2,37.9,30.07,East,82,0.0,0.0,95,0.14,,,0.06,Wunderground v.1.15,2013-01-01 09:55:00,
2013-01-01 05:00:00,39.3,38.0,30.08,East,82,0.0,0.0,95,0.08,,,0.06,Wunderground v.1.15,2013-01-01 10:00:00,
2013-01-01 05:09:00,39.3,38.3,30.08,East,82,0.0,0.0,96,0.07,,,0.08,Wunderground v.1.15,2013-01-01 10:09:00,
2013-01-01 05:15:00,39.3,38.3,30.08,East,82,0.0,0.0,96,0.07,,,0.08,Wunderground v.1.15,2013-01-01 10:15:00,
2013-01-01 05:20:00,39.3,38.3,30.08,East,82,0.0,0.0,96,0.07,,,0.09,Wunderground v.1.15,2013-01-01 10:20:00,
2013-01-01 05:25:00,39.4,38.4,30.08,East,82,0.0,0.0,96,0.11,,,0.10,Wunderground v.1.15,2013-01-01 10:25:00,
2013-01-01 05:34:00,39.5,38.5,30.08,East,82,0.0,0.0,96,0.15,,,0.12,Wunderground v.1.15,2013-01-01 10:34:00,
2013-01-01 05:40:00,39.5,38.5,30.08,East,82,0.0,0.0,96,0.10,,,0.12,Wunderground v.1.15,2013-01-01 10:40:00,
2013-01-01 05:45:00,39.5,38.5,30.08,East,82,0.0,0.0,96,0.08,,,0.13,Wunderground v.1.15,2013-01-01 10:45:00,
2013-01-01 05:50:00,39.5,38.5,30.08,East,82,0.0,0.0,96,0.13,,,0.14,Wunderground v.1.15,2013-01-01 10:50:00,
2013-01-01 05:55:00,39.5,38.5,30.08,East,82,0.0,0.0,96,0.09,,,0.15,Wunderground v.1.15,2013-01-01 10:55:00,
2013-01-01 06:00:00,39.6,38.6,30.07,East,88,0.0,0.0,96,0.14,,,0.16,Wunderground v.1.15,2013-01-01 11:00:00,
2013-01-01 06:09:00,39.6,38.6,30.07,ENE,71,1.0,1.0,96,0.15,,,0.18,Wunderground v.1.15,2013-01-01 11:09:00,
2013-01-01 06:14:00,39.7,38.7,30.07,NE,54,1.0,1.0,96,0.22,,,0.20,Wunderground v.1.15,2013-01-01 11:14:00,
2013-01-01 06:20:00,39.7,38.7,30.08,NE,54,0.0,0.0,96,0.09,,,0.20,Wunderground v.1.15,2013-01-01 11:20:00,
2013-01-01 06:25:00,39.7,38.7,30.08,NE,54,0.0,0.0,96,0.21,,,0.22,Wunderground v.1.15,2013-01-01 11:25:00,
2013-01-01 06:30:00,39.7,38.7,30.08,NE,54,0.0,0.0,96,0.10,,,0.22,Wunderground v.1.15,2013-01-01 11:30:00,
2013-01-01 06:39:00,39.8,38.8,30.09,NE,54,0.0,0.0,96,0.13,,,0.24,Wunderground v.1.15,2013-01-01 11:39:00,
2013-01-01 06:44:00,39.8,38.8,30.08,NE,54,0.0,0.0,96,0.06,,,0.24,Wunderground v.1.15,2013-01-01 11:44:00,
2013-01-01 06:50:00,39.8,38.8,30.08,NE,54,0.0,0.0,96,0.14,,,0.26,Wunderground v.1.15,2013-01-01 11:50:00,
2013-01-01 06:55:00,39.8,39.0,30.07,NE,54,0.0,0.0,97,0.11,,,0.26,Wunderground v.1.15,2013-01-01 11:55:00,
2013-01-01 07:00:00,39.8,39.0,30.08,NE,54,0.0,0.0,97,0.06,,,0.26,Wunderground v.1.15,2013-01-01 12:00:00,
2013-01-01 07:10:00,39.8,39.0,30.08,NE,54,0.0,0.0,97,0.05,,,0.27,Wunderground v.1.15,2013-01-01 12:10:00,
2013-01-01 07:15:00,39.8,39.0,30.08,NE,54,0.0,0.0,97,0.06,,,0.28,Wunderground v.1.15,2013-01-01 12:15:00,
2013-01-01 07:20:00,39.9,39.1,30.08,NE,54,0.0,0.0,97,0.06,,,0.28,Wunderground v.1.15,2013-01-01 12:20:00,
2013-01-01 07:29:00,39.9,39.1,30.08,NE,54,0.0,0.0,97,0.00,,,0.28,Wunderground v.1.15,2013-01-01 12:29:00,
2013-01-01 07:35:00,39.9,39.1,30.08,NE,54,0.0,0.0,97,0.00,,,0.28,Wunderground v.1.15,2013-01-01 12:35:00,
2013-01-01 07:40:00,39.9,39.1,30.08,NE,54,0.0,0.0,97,0.00,,,0.28,Wunderground v.1.15,2013-01-01 12:40:00,
2013-01-01 07:45:00,40.0,39.2,30.08,NE,54,0.0,0.0,97,0.00,,,0.28,Wunderground v.1.15,2013-01-01 12:45:00,
2013-01-01 07:50:00,40.0,39.2,30.08,NE,54,0.0,0.0,97,0.00,,,0.28,Wunderground v.1.15,2013-01-01 12:50:00,
2013-01-01 07:55:00,40.0,39.2,30.09,NNE,13,0.0,0.0,97,0.00,,,0.28,Wunderground v.1.15,2013-01-01 12:55:00,
2013-01-01 08:00:00,40.0,39.2,30.08,NNE,13,0.0,0.0,97,0.00,,,0.28,Wunderground v.1.15,2013-01-01 13:00:00,
2013-01-01 08:10:00,40.0,39.2,30.08,NNE,13,0.0,0.0,97,0.00,,,0.29,Wunderground v.1.15,2013-01-01 13:10:00,
2013-01-01 08:15:00,40.0,39.2,30.08,NNE,13,0.0,0.0,97,0.00,,,0.29,Wunderground v.1.15,2013-01-01 13:15:00,
2013-01-01 08:20:00,40.0,39.2,30.09,NNE,13,0.0,0.0,97,0.00,,,0.29,Wunderground v.1.15,2013-01-01 13:20:00,
2013-01-01 08:25:00,40.0,39.2,30.08,NNE,13,0.0,0.0,97,0.00,,,0.29,Wunderground v.1.15,2013-01-01 13:25:00,
2013-01-01 08:30:00,40.1,39.3,30.08,NNE,13,0.0,0.0,97,0.00,,,0.30,Wunderground v.1.15,2013-01-01 13:30:00,
2013-01-01 08:35:00,40.1,39.3,30.08,NNE,13,0.0,0.0,97,0.00,,,0.30,Wunderground v.1.15,2013-01-01 13:35:00,
2013-01-01 08:44:00,40.2,39.4,30.07,NNE,13,0.0,0.0,97,0.00,,,0.30,Wunderground v.1.15,2013-01-01 13:44:00,
2013-01-01 08:50:00,40.2,39.4,30.08,NNE,13,0.0,0.0,97,0.00,,,0.30,Wunderground v.1.15,2013-01-01 13:50:00,
2013-01-01 08:55:00,40.3,39.5,30.08,NNE,13,0.0,0.0,97,0.00,,,0.30,Wunderground v.1.15,2013-01-01 13:55:00,
2013-01-01 09:00:00,40.3,39.5,30.09,NNE,13,0.0,0.0,97,0.00,,,0.31,Wunderground v.1.15,2013-01-01 14:00:00,
2013-01-01 09:10:00,40.4,39.6,30.09,NNE,13,0.0,0.0,97,0.08,,,0.32,Wunderground v.1.15,2013-01-01 14:10:00,
2013-01-01 09:19:00,40.4,39.6,30.07,NNE,13,0.0,1.0,97,0.18,,,0.34,Wunderground v.1.15,2013-01-01 14:19:00,
2013-01-01 09:24:00,40.5,39.7,30.06,NNE,13,0.0,1.0,97,0.07,,,0.34,Wunderground v.1.15,2013-01-01 14:24:00,
2013-01-01 09:30:00,40.6,39.8,30.06,NNE,13,0.0,0.0,97,0.06,,,0.35,Wunderground v.1.15,2013-01-01 14:30:00,
2013-01-01 09:40:00,40.7,39.9,30.05,NNE,13,0.0,0.0,97,0.08,,,0.36,Wunderground v.1.15,2013-01-01 14:40:00,
2013-01-01 09:45:00,40.7,39.9,30.04,NNE,31,0.0,1.0,97,0.06,,,0.37,Wunderground v.1.15,2013-01-01 14:45:00,
2013-01-01 09:50:00,40.8,40.0,30.05,NNE,31,0.0,0.0,97,0.12,,,0.38,Wunderground v.1.15,2013-01-01 14:50:00,
2013-01-01 09:55:00,40.8,40.0,30.05,NNE,31,0.0,0.0,97,0.08,,,0.38,Wunderground v.1.15,2013-01-01 14:55:00,
2013-01-01 10:04:00,40.9,40.1,30.04,NNE,31,0.0,0.0,97,0.05,,,0.39,Wunderground v.1.15,2013-01-01 15:04:00,
2013-01-01 10:14:00,41.0,40.2,30.05,NNE,31,0.0,0.0,97,0.04,,,0.39,Wunderground v.1.15,2013-01-01 15:14:00,
2013-01-01 10:20:00,41.1,40.3,30.05,NNE,31,0.0,0.0,97,0.00,,,0.39,Wunderground v.1.15,2013-01-01 15:20:00,
2013-01-01 10:25:00,41.2,40.4,30.05,WSW,247,0.0,1.0,97,0.00,,,0.39,Wunderground v.1.15,2013-01-01 15:25:00,
2013-01-01 10:30:00,41.3,40.5,30.05,WSW,247,0.0,0.0,97,0.00,,,0.39,Wunderground v.1.15,2013-01-01 15:30:00,
2013-01-01 10:35:00,41.4,40.6,30.05,WSW,247,0.0,0.0,97,0.00,,,0.39,Wunderground v.1.15,2013-01-01 15:35:00,
2013-01-01 10:40:00,41.5,40.7,30.06,WSW,247,0.0,0.0,97,0.00,,,0.39,Wunderground v.1.15,2013-01-01 15:40:00,
2013-01-01 10:45:00,41.7,40.9,30.05,SSW,196,0.0,0.0,97,0.00,,,0.39,Wunderground v.1.15,2013-01-01 15:45:00,
2013-01-01 10:54:00,41.9,41.1,30.06,SW,227,0.0,0.0,97,0.00,,,0.39,Wunderground v.1.15,2013-01-01 15:54:00,
2013-01-01 11:00:00,41.9,41.1,30.06,West,281,1.0,1.0,97,0.00,,,0.40,Wunderground v.1.15,2013-01-01 16:00:00,
2013-01-01 11:10:00,42.0,41.2,30.06,West,279,0.0,0.0,97,0.00,,,0.40,Wunderground v.1.15,2013-01-01 16:10:00,
2013-01-01 11:15:00,42.1,41.6,30.06,West,279,0.0,0.0,98,0.00,,,0.40,Wunderground v.1.15,2013-01-01 16:15:00,
2013-01-01 11:20:00,42.3,41.8,30.05,West,279,0.0,0.0,98,0.00,,,0.40,Wunderground v.1.15,2013-01-01 16:20:00,
2013-01-01 11:25:00,42.4,41.9,30.05,West,279,0.0,0.0,98,0.00,,,0.41,Wunderground v.1.15,2013-01-01 16:25:00,
2013-01-01 11:34:00,42.8,42.3,30.04,West,279,0.0,0.0,98,0.05,,,0.42,Wunderground v.1.15,2013-01-01 16:34:00,
2013-01-01 11:40:00,43.0,42.5,30.04,West,279,0.0,0.0,98,0.05,,,0.42,Wunderground v.1.15,2013-01-01 16:40:00,
2013-01-01 11:45:00,43.3,42.8,30.05,West,279,0.0,0.0,98,0.05,,,0.42,Wunderground v.1.15,2013-01-01 16:45:00,
2013-01-01 11:55:00,43.6,43.1,30.04,West,279,0.0,0.0,98,0.00,,,0.42,Wunderground v.1.15,2013-01-01 16:55:00,
2013-01-01 12:00:00,43.8,43.3,30.04,West,277,0.0,0.0,98,0.00,,,0.42,Wunderground v.1.15,2013-01-01 17:00:00,
2013-01-01 12:10:00,44.0,43.5,30.02,ENE,76,0.0,0.0,98,0.00,,,0.43,Wunderground v.1.15,2013-01-01 17:10:00,
2013-01-01 12:19:00,44.2,43.7,30.02,ESE,122,0.0,0.0,98,0.00,,,0.43,Wunderground v.1.15,2013-01-01 17:19:00,
2013-01-01 12:24:00,44.3,43.8,30.02,ESE,122,0.0,0.0,98,0.00,,,0.44,Wunderground v.1.15,2013-01-01 17:24:00,
2013-01-01 12:29:00,44.4,43.9,30.02,ESE,122,0.0,0.0,98,0.00,,,0.44,Wunderground v.1.15,2013-01-01 17:29:00,
2013-01-01 12:35:00,44.5,44.0,30.02,ESE,122,0.0,0.0,98,0.00,,,0.44,Wunderground v.1.15,2013-01-01 17:35:00,
2013-01-01 12:40:00,44.6,44.1,30.02,ESE,122,0.0,0.0,98,0.00,,,0.44,Wunderground v.1.15,2013-01-01 17:40:00,
2013-01-01 12:45:00,44.7,44.2,30.02,WSW,246,0.0,0.0,98,0.00,,,0.44,Wunderground v.1.15,2013-01-01 17:45:00,
2013-01-01 12:50:00,44.8,44.3,30.02,ESE,120,0.0,0.0,98,0.00,,,0.44,Wunderground v.1.15,2013-01-01 17:50:00,
2013-01-01 12:55:00,44.9,44.4,30.01,ESE,120,0.0,0.0,98,0.00,,,0.45,Wunderground v.1.15,2013-01-01 17:55:00,
2013-01-01 13:00:00,45.0,44.5,30.01,ESE,120,0.0,0.0,98,0.00,,,0.45,Wunderground v.1.15,2013-01-01 18:00:00,
2013-01-01 13:09:00,45.1,44.6,30.01,South,190,0.0,0.0,98,0.07,,,0.46,Wunderground v.1.15,2013-01-01 18:09:00,
2013-01-01 13:14:00,45.1,44.6,30.00,South,190,0.0,0.0,98,0.05,,,0.46,Wunderground v.1.15,2013-01-01 18:14:00,
2013-01-01 13:20:00,45.2,44.7,30.00,South,190,0.0,0.0,98,0.05,,,0.47,Wunderground v.1.15,2013-01-01 18:20:00,
2013-01-01 13:25:00,45.3,44.8,29.99,South,190,0.0,0.0,98,0.08,,,0.48,Wunderground v.1.15,2013-01-01 18:25:00,
2013-01-01 13:30:00,45.4,44.9,29.99,South,190,0.0,0.0,98,0.08,,,0.48,Wunderground v.1.15,2013-01-01 18:30:00,
2013-01-01 13:35:00,45.5,45.0,29.98,South,190,0.0,0.0,98,0.05,,,0.48,Wunderground v.1.15,2013-01-01 18:35:00,
2013-01-01 13:40:00,45.7,45.2,29.97,SE,143,0.0,0.0,98,0.00,,,0.48,Wunderground v.1.15,2013-01-01 18:40:00,
2013-01-01 13:49:00,45.9,45.4,29.97,SE,143,0.0,0.0,98,0.00,,,0.49,Wunderground v.1.15,2013-01-01 18:49:00,
2013-01-01 13:54:00,46.0,45.5,29.97,SE,142,0.0,0.0,98,0.00,,,0.49,Wunderground v.1.15,2013-01-01 18:54:00,
2013-01-01 14:00:00,46.1,45.6,29.97,SE,144,0.0,0.0,98,0.00,,,0.49,Wunderground v.1.15,2013-01-01 19:00:00,
2013-01-01 14:10:00,46.2,45.7,29.97,WSW,244,0.0,0.0,98,0.04,,,0.50,Wunderground v.1.15,2013-01-01 19:10:00,
2013-01-01 14:15:00,46.3,45.8,29.97,WSW,244,0.0,0.0,98,0.04,,,0.50,Wunderground v.1.15,2013-01-01 19:15:00,
2013-01-01 14:20:00,46.3,45.8,29.97,WSW,243,0.0,0.0,98,0.04,,,0.51,Wunderground v.1.15,2013-01-01 19:20:00,
2013-01-01 14:25:00,46.4,45.9,29.97,WSW,243,0.0,0.0,98,0.04,,,0.51,Wunderground v.1.15,2013-01-01 19:25:00,
2013-01-01 14:34:00,46.5,46.0,29.97,WSW,243,0.0,0.0,98,0.05,,,0.52,Wunderground v.1.15,2013-01-01 19:34:00,
2013-01-01 14:39:00,46.5,46.0,29.97,WSW,243,0.0,0.0,98,0.05,,,0.52,Wunderground v.1.15,2013-01-01 19:39:00,
2013-01-01 14:44:00,46.6,46.1,29.97,WSW,243,0.0,0.0,98,0.05,,,0.52,Wunderground v.1.15,2013-01-01 19:44:00,
2013-01-01 14:50:00,46.6,46.1,29.97,WSW,243,0.0,0.0,98,0.00,,,0.52,Wunderground v.1.15,2013-01-01 19:50:00,
2013-01-01 14:55:00,46.7,46.2,29.96,WSW,243,0.0,0.0,98,0.00,,,0.52,Wunderground v.1.15,2013-01-01 19:55:00,
2013-01-01 15:00:00,46.7,46.2,29.96,WSW,243,0.0,0.0,98,0.00,,,0.53,Wunderground v.1.15,2013-01-01 20:00:00,
2013-01-01 15:09:00,46.8,46.3,29.97,WSW,243,0.0,0.0,98,0.00,,,0.53,Wunderground v.1.15,2013-01-01 20:09:00,
2013-01-01 15:14:00,46.9,46.4,29.97,WSW,243,0.0,0.0,98,0.05,,,0.54,Wunderground v.1.15,2013-01-01 20:14:00,
2013-01-01 15:19:00,46.9,46.4,29.97,WSW,243,0.0,0.0,98,0.05,,,0.54,Wunderground v.1.15,2013-01-01 20:19:00,
2013-01-01 15:24:00,47.0,46.5,29.97,WSW,243,0.0,0.0,98,0.04,,,0.54,Wunderground v.1.15,2013-01-01 20:24:00,
2013-01-01 15:29:00,47.0,46.5,29.97,WSW,243,0.0,0.0,98,0.00,,,0.54,Wunderground v.1.15,2013-01-01 20:29:00,
2013-01-01 15:35:00,47.1,46.6,29.97,WSW,243,0.0,0.0,98,0.00,,,0.54,Wunderground v.1.15,2013-01-01 20:35:00,
2013-01-01 15:40:00,47.1,46.6,29.97,WSW,243,0.0,0.0,98,0.00,,,0.54,Wunderground v.1.15,2013-01-01 20:40:00,
2013-01-01 15:45:00,47.2,46.7,29.97,WSW,243,0.0,0.0,98,0.00,,,0.55,Wunderground v.1.15,2013-01-01 20:45:00,
2013-01-01 15:55:00,47.2,46.7,29.98,WSW,243,0.0,0.0,98,0.07,,,0.56,Wunderground v.1.15,2013-01-01 20:55:00,
2013-01-01 16:00:00,47.2,46.7,29.97,WSW,243,0.0,0.0,98,0.06,,,0.56,Wunderground v.1.15,2013-01-01 21:00:00,
2013-01-01 16:09:00,47.2,46.7,29.98,WSW,243,0.0,0.0,98,0.05,,,0.57,Wunderground v.1.15,2013-01-01 21:09:00,
2013-01-01 16:15:00,47.2,46.7,29.97,WSW,243,0.0,0.0,98,0.07,,,0.58,Wunderground v.1.15,2013-01-01 21:15:00,
2013-01-01 16:20:00,47.2,46.7,29.97,WSW,243,0.0,0.0,98,0.07,,,0.58,Wunderground v.1.15,2013-01-01 21:20:00,
2013-01-01 16:25:00,47.2,46.7,29.97,WSW,243,0.0,0.0,98,0.05,,,0.59,Wunderground v.1.15,2013-01-01 21:25:00,
2013-01-01 16:30:00,47.2,46.7,29.97,WSW,243,0.0,0.0,98,0.05,,,0.59,Wunderground v.1.15,2013-01-01 21:30:00,
2013-01-01 16:35:00,47.2,46.7,29.97,WSW,243,0.0,0.0,98,0.05,,,0.59,Wunderground v.1.15,2013-01-01 21:35:00,
2013-01-01 16:40:00,47.2,46.7,29.97,WSW,243,0.0,0.0,98,0.04,,,0.59,Wunderground v.1.15,2013-01-01 21:40:00,
2013-01-01 16:49:00,47.2,46.7,29.98,WSW,243,0.0,1.0,98,0.00,,,0.60,Wunderground v.1.15,2013-01-01 21:49:00,
2013-01-01 16:55:00,47.2,46.7,29.98,WSW,243,0.0,1.0,98,0.00,,,0.60,Wunderground v.1.15,2013-01-01 21:55:00,
2013-01-01 17:00:00,47.2,46.7,29.98,WSW,243,0.0,0.0,98,0.00,,,0.60,Wunderground v.1.15,2013-01-01 22:00:00,
2013-01-01 17:10:00,47.2,46.7,29.97,WSW,243,0.0,0.0,98,0.12,,,0.62,Wunderground v.1.15,2013-01-01 22:10:00,
2013-01-01 17:15:00,47.1,46.6,29.97,WSW,243,0.0,0.0,98,0.08,,,0.63,Wunderground v.1.15,2013-01-01 22:15:00,
2013-01-01 17:20:00,47.1,46.6,29.97,WSW,243,0.0,0.0,98,0.08,,,0.63,Wunderground v.1.15,2013-01-01 22:20:00,
2013-01-01 17:29:00,47.1,46.6,29.97,WSW,243,0.0,0.0,98,0.04,,,0.64,Wunderground v.1.15,2013-01-01 22:29:00,
2013-01-01 17:39:00,47.0,46.5,29.98,WSW,243,0.0,0.0,98,0.04,,,0.64,Wunderground v.1.15,2013-01-01 22:39:00,
2013-01-01 17:44:00,47.0,46.5,29.98,WSW,243,0.0,0.0,98,0.00,,,0.64,Wunderground v.1.15,2013-01-01 22:44:00,
2013-01-01 17:49:00,47.0,46.5,29.98,WSW,243,0.0,0.0,98,0.00,,,0.64,Wunderground v.1.15,2013-01-01 22:49:00,
2013-01-01 17:55:00,46.9,46.4,29.97,WSW,243,0.0,0.0,98,0.00,,,0.64,Wunderground v.1.15,2013-01-01 22:55:00,
2013-01-01 18:00:00,46.9,46.4,29.97,WSW,243,0.0,0.0,98,0.00,,,0.64,Wunderground v.1.15,2013-01-01 23:00:00,
2013-01-01 18:10:00,46.9,46.4,29.98,WSW,243,0.0,0.0,98,0.13,,,0.65,Wunderground v.1.15,2013-01-01 23:10:00,
2013-01-01 18:15:00,46.9,46.4,29.98,WSW,243,0.0,0.0,98,0.12,,,0.66,Wunderground v.1.15,2013-01-01 23:15:00,
2013-01-01 18:20:00,46.9,46.4,29.99,WSW,243,0.0,0.0,98,0.10,,,0.67,Wunderground v.1.15,2013-01-01 23:20:00,
2013-01-01 18:29:00,46.8,46.3,30.00,WSW,243,0.0,0.0,98,0.07,,,0.68,Wunderground v.1.15,2013-01-01 23:29:00,
2013-01-01 18:34:00,46.8,46.3,29.99,WSW,243,0.0,0.0,98,0.15,,,0.70,Wunderground v.1.15,2013-01-01 23:34:00,
2013-01-01 18:39:00,46.8,46.3,30.00,WSW,243,0.0,0.0,98,0.10,,,0.70,Wunderground v.1.15,2013-01-01 23:39:00,
2013-01-01 18:49:00,46.8,46.3,30.00,WSW,243,0.0,0.0,98,0.12,,,0.72,Wunderground v.1.15,2013-01-01 23:49:00,
2013-01-01 18:55:00,46.7,46.2,30.00,WSW,243,0.0,0.0,98,0.08,,,0.73,Wunderground v.1.15,2013-01-01 23:55:00,
2013-01-01 19:00:00,46.7,46.2,29.99,WSW,243,0.0,0.0,98,0.08,,,0.73,Wunderground v.1.15,2013-01-02 00:00:00,
2013-01-01 19:09:00,46.6,46.1,29.99,WSW,243,0.0,0.0,98,0.07,,,0.74,Wunderground v.1.15,2013-01-02 00:09:00,
2013-01-01 19:14:00,46.6,46.1,29.99,WSW,243,0.0,0.0,98,0.05,,,0.75,Wunderground v.1.15,2013-01-02 00:14:00,
2013-01-01 19:24:00,46.5,46.0,29.99,WSW,243,0.0,0.0,98,0.09,,,0.76,Wunderground v.1.15,2013-01-02 00:24:00,
2013-01-01 19:29:00,46.5,46.0,29.99,WSW,243,0.0,0.0,98,0.05,,,0.76,Wunderground v.1.15,2013-01-02 00:29:00,
2013-01-01 19:34:00,46.4,45.9,29.99,WSW,243,0.0,0.0,98,0.04,,,0.77,Wunderground v.1.15,2013-01-02 00:34:00,
2013-01-01 19:40:00,46.4,45.9,30.00,WSW,243,0.0,0.0,98,0.04,,,0.77,Wunderground v.1.15,2013-01-02 00:40:00,
2013-01-01 19:45:00,46.3,45.8,30.00,WSW,243,0.0,0.0,98,0.04,,,0.77,Wunderground v.1.15,2013-01-02 00:45:00,
2013-01-01 19:55:00,46.2,45.7,29.99,WSW,243,0.0,0.0,98,0.00,,,0.77,Wunderground v.1.15,2013-01-02 00:55:00,
2013-01-01 20:00:00,46.2,45.7,30.00,WSW,243,0.0,0.0,98,0.00,,,0.77,Wunderground v.1.15,2013-01-02 01:00:00,
2013-01-01 20:09:00,46.1,45.3,29.99,WSW,243,0.0,0.0,97,0.00,,,0.78,Wunderground v.1.15,2013-01-02 01:09:00,
2013-01-01 20:14:00,46.1,45.3,29.99,WSW,243,0.0,0.0,97,0.00,,,0.78,Wunderground v.1.15,2013-01-02 01:14:00,
2013-01-01 20:19:00,46.0,45.2,29.99,WSW,243,0.0,0.0,97,0.00,,,0.78,Wunderground v.1.15,2013-01-02 01:19:00,
2013-01-01 20:29:00,46.0,45.2,29.99,WSW,243,0.0,0.0,97,0.00,,,0.78,Wunderground v.1.15,2013-01-02 01:29:00,
2013-01-01 20:34:00,45.9,45.1,29.99,WSW,243,0.0,0.0,97,0.00,,,0.78,Wunderground v.1.15,2013-01-02 01:34:00,
2013-01-01 20:40:00,45.9,45.1,29.98,WSW,243,0.0,0.0,97,0.00,,,0.78,Wunderground v.1.15,2013-01-02 01:40:00,
2013-01-01 20:45:00,45.9,45.4,29.98,WSW,243,0.0,0.0,98,0.00,,,0.78,Wunderground v.1.15,2013-01-02 01:45:00,
2013-01-01 20:50:00,45.8,45.3,29.98,WSW,243,0.0,0.0,98,0.00,,,0.78,Wunderground v.1.15,2013-01-02 01:50:00,
2013-01-01 20:55:00,45.8,45.3,29.99,WSW,243,0.0,0.0,98,0.00,,,0.78,Wunderground v.1.15,2013-01-02 01:55:00,
2013-01-01 21:00:00,45.7,45.2,29.99,WSW,243,0.0,0.0,98,0.00,,,0.78,Wunderground v.1.15,2013-01-02 02:00:00,
2013-01-01 21:09:00,45.6,45.1,30.00,WSW,243,0.0,0.0,98,0.00,,,0.78,Wunderground v.1.15,2013-01-02 02:09:00,
2013-01-01 21:14:00,45.6,45.1,29.99,WSW,243,0.0,0.0,98,0.00,,,0.78,Wunderground v.1.15,2013-01-02 02:14:00,
2013-01-01 21:19:00,45.5,44.7,30.00,WSW,243,0.0,0.0,97,0.00,,,0.79,Wunderground v.1.15,2013-01-02 02:19:00,
2013-01-01 21:24:00,45.5,44.7,30.00,WSW,243,0.0,0.0,97,0.00,,,0.79,Wunderground v.1.15,2013-01-02 02:24:00,
2013-01-01 21:30:00,45.5,44.7,30.00,WSW,243,0.0,0.0,97,0.00,,,0.79,Wunderground v.1.15,2013-01-02 02:30:00,
2013-01-01 21:40:00,45.4,44.6,29.99,WSW,243,0.0,0.0,97,0.04,,,0.80,Wunderground v.1.15,2013-01-02 02:40:00,
2013-01-01 21:45:00,45.4,44.6,29.99,WSW,243,0.0,0.0,97,0.04,,,0.80,Wunderground v.1.15,2013-01-02 02:45:00,
2013-01-01 21:50:00,45.4,44.6,29.99,WSW,243,0.0,0.0,97,0.00,,,0.80,Wunderground v.1.15,2013-01-02 02:50:00,
2013-01-01 21:55:00,45.3,44.5,29.99,WSW,243,0.0,0.0,97,0.00,,,0.80,Wunderground v.1.15,2013-01-02 02:55:00,
2013-01-01 22:00:00,45.3,44.5,29.99,WSW,243,0.0,0.0,97,0.00,,,0.80,Wunderground v.1.15,2013-01-02 03:00:00,
2013-01-01 22:09:00,45.2,44.4,29.98,WSW,243,0.0,0.0,97,0.00,,,0.80,Wunderground v.1.15,2013-01-02 03:09:00,
2013-01-01 22:14:00,45.1,44.3,29.99,WSW,243,0.0,0.0,97,0.00,,,0.80,Wunderground v.1.15,2013-01-02 03:14:00,
2013-01-01 22:19:00,45.1,44.3,29.99,WSW,243,0.0,0.0,97,0.00,,,0.80,Wunderground v.1.15,2013-01-02 03:19:00,
2013-01-01 22:24:00,45.1,44.3,29.98,WSW,243,0.0,0.0,97,0.00,,,0.80,Wunderground v.1.15,2013-01-02 03:24:00,
2013-01-01 22:30:00,45.0,44.2,29.99,WSW,243,0.0,0.0,97,0.00,,,0.80,Wunderground v.1.15,2013-01-02 03:30:00,
2013-01-01 22:35:00,45.0,44.2,29.99,WSW,243,0.0,0.0,97,0.00,,,0.80,Wunderground v.1.15,2013-01-02 03:35:00,
2013-01-01 22:40:00,45.0,44.2,29.98,WSW,243,0.0,0.0,97,0.00,,,0.80,Wunderground v.1.15,2013-01-02 03:40:00,
2013-01-01 22:45:00,44.9,44.1,29.99,WSW,243,0.0,1.0,97,0.00,,,0.80,Wunderground v.1.15,2013-01-02 03:45:00,
2013-01-01 22:54:00,44.9,44.1,29.99,WSW,243,0.0,1.0,97,0.00,,,0.80,Wunderground v.1.15,2013-01-02 03:54:00,
2013-01-01 23:00:00,44.9,44.1,29.99,WSW,243,0.0,0.0,97,0.00,,,0.80,Wunderground v.1.15,2013-01-02 04:00:00,
2013-01-01 23:10:00,45.0,44.5,30.00,WSW,243,0.0,0.0,98,0.00,,,0.80,Wunderground v.1.15,2013-01-02 04:10:00,
2013-01-01 23:15:00,45.1,44.6,30.00,WSW,243,1.0,1.0,98,0.00,,,0.80,Wunderground v.1.15,2013-01-02 04:15:00,
2013-01-01 23:20:00,45.0,44.5,30.00,West,266,2.0,5.0,98,0.00,,,0.80,Wunderground v.1.15,2013-01-02 04:20:00,
2013-01-01 23:25:00,44.8,44.0,30.00,West,265,2.0,5.0,97,0.00,,,0.80,Wunderground v.1.15,2013-01-02 04:25:00,
2013-01-01 23:30:00,44.5,43.7,30.01,SW,235,2.0,4.0,97,0.00,,,0.80,Wunderground v.1.15,2013-01-02 04:30:00,
2013-01-01 23:39:00,43.6,42.5,30.02,West,271,4.0,7.0,96,0.00,,,0.80,Wunderground v.1.15,2013-01-02 04:39:00,
2013-01-01 23:44:00,43.1,41.8,30.03,West,276,4.0,7.0,95,0.00,,,0.80,Wunderground v.1.15,2013-01-02 04:44:00,
2013-01-01 23:49:00,42.6,41.0,30.02,SW,232,4.0,4.0,94,0.00,,,0.80,Wunderground v.1.15,2013-01-02 04:49:00,
2013-01-01 23:55:00,42.3,40.7,30.02,North,4,3.0,4.0,94,0.00,,,0.80,Wunderground v.1.15,2013-01-02 04:55:00,